Time;durP1;ratioP1;P1;durP2;ratioP2;P2;SDS_P1;SDS_P2;PMS_P1;PMS_P2;Temp;Humidity;BMP_temperature;BMP_pressure;BME280_temperature;BME280_humidity;BME280_pressure;Samples;Min_cycle;Max_cycle;Signal;HPM_P1;HPM_P2
2023/07/24 00:00:57;;;;;;;;;;;16.00;99.90;;;;;;5067348;28;20040;-65
2023/07/24 00:03:23;;;;;;;2.55;1.50;;;16.00;99.90;;;;;;5081135;28;19988;-63
2023/07/24 00:05:48;;;;;;;3.10;1.90;;;16.10;99.90;;;;;;5060205;28;20117;-66
2023/07/24 00:08:14;;;;;;;;;;;16.10;99.90;;;;;;5060073;28;20036;-65
2023/07/24 00:10:40;;;;;;;7.10;1.95;;;16.10;99.90;;;;;;5059689;28;19924;-63
2023/07/24 00:13:05;;;;;;;;;;;16.10;99.90;;;;;;5062858;28;20063;-64
2023/07/24 00:15:31;;;;;;;3.65;1.90;;;16.00;99.90;;;;;;5071579;28;20004;-64
2023/07/24 00:17:56;;;;;;;;;;;16.00;99.90;;;;;;5072472;28;20051;-65
2023/07/24 00:20:24;;;;;;;2.58;2.00;;;16.00;99.90;;;;;;5053591;28;20594;-64
2023/07/24 00:22:49;;;;;;;3.35;2.05;;;16.00;99.90;;;;;;5047508;28;20126;-64
2023/07/24 00:25:15;;;;;;;;;;;16.00;99.90;;;;;;5046169;28;20489;-64
2023/07/24 00:27:41;;;;;;;3.90;2.10;;;16.00;99.90;;;;;;5050014;28;19960;-65
2023/07/24 00:30:07;;;;;;;6.70;2.55;;;16.00;99.90;;;;;;5051728;28;20048;-64
2023/07/24 00:32:33;;;;;;;3.28;2.13;;;16.00;99.90;;;;;;5051181;28;20087;-65
2023/07/24 00:34:58;;;;;;;;;;;16.00;99.90;;;;;;5046619;28;20036;-65
2023/07/24 00:37:24;;;;;;;4.05;2.60;;;16.00;99.90;;;;;;5046144;28;19920;-65
2023/07/24 00:39:50;;;;;;;;;;;16.00;99.90;;;;;;5044576;28;20041;-66
2023/07/24 00:42:15;;;;;;;4.72;2.30;;;16.00;99.90;;;;;;5046973;28;19966;-66
2023/07/24 00:44:41;;;;;;;5.10;2.97;;;16.00;99.90;;;;;;5046701;28;20049;-66
2023/07/24 00:47:08;;;;;;;4.22;2.83;;;16.10;99.90;;;;;;5059618;28;20063;-67
2023/07/24 00:49:34;;;;;;;9.23;2.72;;;16.10;99.90;;;;;;5045122;28;20040;-67
2023/07/24 00:51:59;;;;;;;3.50;2.63;;;16.10;99.90;;;;;;5046744;28;20049;-67
2023/07/24 00:54:28;;;;;;;;;;;16.10;99.90;;;;;;5045703;28;20447;-67
2023/07/24 00:56:54;;;;;;;6.60;2.50;;;16.20;99.90;;;;;;5045929;28;19932;-67
2023/07/24 00:59:19;;;;;;;;;;;16.20;99.90;;;;;;5046672;28;20142;-66
2023/07/24 01:01:47;;;;;;;4.22;2.65;;;16.20;99.90;;;;;;5047300;28;19955;-66
2023/07/24 01:04:14;;;;;;;10.00;3.20;;;16.20;99.90;;;;;;5046070;28;20052;-65
2023/07/24 01:06:40;;;;;;;6.57;2.70;;;16.20;99.90;;;;;;5045420;28;20080;-65
2023/07/24 01:09:05;;;;;;;;;;;16.10;99.90;;;;;;5045871;28;20065;-65
2023/07/24 01:11:43;;;;;;;3.75;2.70;;;16.10;99.90;;;;;;5045216;28;20324;-65
2023/07/24 01:14:23;;;;;;;3.33;2.33;;;16.20;99.90;;;;;;5048814;28;20033;-64
2023/07/24 01:16:51;;;;;;;6.68;2.83;;;16.10;99.90;;;;;;5063316;28;20808;-67
2023/07/24 01:19:48;;;;;;;3.28;2.58;;;16.10;99.90;;;;;;5065072;28;20033;-65
2023/07/24 01:22:25;;;;;;;3.97;2.47;;;16.10;99.90;;;;;;5048500;28;20094;-66
2023/07/24 01:25:22;;;;;;;5.28;2.75;;;16.10;99.90;;;;;;5048650;28;20128;-66
2023/07/24 01:27:47;;;;;;;3.20;2.30;;;16.10;99.90;;;;;;5044668;28;20036;-64
2023/07/24 01:30:16;;;;;;;;;;;16.00;99.90;;;;;;5046705;28;20885;-62
2023/07/24 01:32:42;;;;;;;6.57;2.72;;;16.00;99.90;;;;;;5047970;28;19927;-65
2023/07/24 01:35:08;;;;;;;;;;;16.00;99.90;;;;;;5048298;28;20029;-66
2023/07/24 01:37:35;;;;;;;6.07;2.88;;;16.00;99.90;;;;;;5048677;28;20075;-64
2023/07/24 01:40:02;;;;;;;4.40;2.80;;;15.90;99.90;;;;;;5046927;28;20444;-64
2023/07/24 01:42:29;;;;;;;3.47;2.30;;;16.00;99.90;;;;;;5049743;28;20091;-63
2023/07/24 01:44:55;;;;;;;4.32;2.42;;;15.90;99.90;;;;;;5047946;28;20044;-66
2023/07/24 01:47:21;;;;;;;2.83;2.00;;;15.90;99.90;;;;;;5049191;28;20049;-65
2023/07/24 01:49:48;;;;;;;4.35;2.55;;;15.90;99.90;;;;;;5046239;28;20041;-64
2023/07/24 01:52:14;;;;;;;3.83;2.60;;;15.90;99.90;;;;;;5048616;28;20087;-66
2023/07/24 01:54:39;;;;;;;;;;;16.00;99.90;;;;;;5048779;28;20044;-63
2023/07/24 01:57:05;;;;;;;3.67;2.22;;;16.00;99.90;;;;;;5049541;28;19917;-65
2023/07/24 01:59:31;;;;;;;;;;;16.00;99.90;;;;;;5047964;28;20123;-63
2023/07/24 02:01:56;;;;;;;4.03;2.45;;;16.00;99.90;;;;;;5046443;28;19927;-65
2023/07/24 02:04:22;;;;;;;;;;;15.90;99.90;;;;;;5047081;28;20059;-66
2023/07/24 02:06:49;;;;;;;3.72;2.65;;;15.90;99.90;;;;;;5045458;28;19978;-64
2023/07/24 02:09:15;;;;;;;3.22;2.35;;;15.80;99.90;;;;;;5042156;28;20520;-66
2023/07/24 02:11:44;;;;;;;6.55;2.75;;;15.80;99.90;;;;;;5043925;28;20037;-66
2023/07/24 02:14:13;;;;;;;5.80;2.80;;;15.80;99.90;;;;;;5044589;28;20045;-66
2023/07/24 02:16:39;;;;;;;4.70;2.88;;;15.70;99.90;;;;;;5041780;28;20047;-65
2023/07/24 02:19:05;;;;;;;;;;;15.70;99.90;;;;;;5042786;28;20037;-65
2023/07/24 02:21:31;;;;;;;5.63;3.58;;;15.70;99.90;;;;;;5044880;28;20288;-66
2023/07/24 02:23:56;;;;;;;;;;;15.80;99.90;;;;;;5045894;28;20729;-65
2023/07/24 02:26:22;;;;;;;6.15;2.70;;;15.80;99.90;;;;;;5045666;28;19921;-65
2023/07/24 02:28:47;;;;;;;;;;;15.80;99.90;;;;;;5046133;28;20099;-65
2023/07/24 02:31:13;;;;;;;7.60;2.88;;;15.80;99.90;;;;;;5048420;28;19965;-65
2023/07/24 02:33:38;;;;;;;;;;;15.80;99.90;;;;;;5044793;28;20044;-65
2023/07/24 02:36:04;;;;;;;7.90;3.35;;;15.80;99.90;;;;;;5044993;28;20090;-65
2023/07/24 02:38:30;;;;;;;;;;;15.80;99.90;;;;;;5043350;28;20037;-65
2023/07/24 02:40:56;;;;;;;5.20;3.50;;;15.80;99.90;;;;;;5042610;28;19923;-65
2023/07/24 02:43:21;;;;;;;4.70;3.20;;;15.90;99.90;;;;;;5039287;28;20080;-66
2023/07/24 02:45:47;;;;;;;;;;;16.00;99.90;;;;;;5041276;28;20052;-65
2023/07/24 02:48:12;;;;;;;7.03;3.28;;;16.00;99.90;;;;;;5042612;28;19925;-65
2023/07/24 02:50:38;;;;;;;7.00;3.70;;;16.00;99.90;;;;;;5043903;28;20420;-65
2023/07/24 02:53:04;;;;;;;4.70;2.88;;;16.00;99.90;;;;;;5044155;28;20036;-65
2023/07/24 02:55:30;;;;;;;8.50;2.78;;;16.10;99.90;;;;;;5044585;28;20698;-66
2023/07/24 02:57:55;;;;;;;;;;;16.00;99.90;;;;;;5045194;28;20067;-65
2023/07/24 03:00:21;;;;;;;4.43;2.70;;;16.00;99.90;;;;;;5041991;28;20372;-66
2023/07/24 03:02:46;;;;;;;;;;;16.00;99.90;;;;;;5061414;28;20405;-65
2023/07/24 03:05:12;;;;;;;6.68;3.10;;;15.90;99.90;;;;;;5059584;28;19984;-65
2023/07/24 03:07:37;;;;;;;3.78;2.85;;;16.00;99.90;;;;;;5063849;28;20504;-65
2023/07/24 03:10:03;;;;;;;;;;;15.90;99.90;;;;;;5062110;28;20691;-66
2023/07/24 03:12:29;;;;;;;6.05;3.13;;;15.90;99.90;;;;;;5063622;28;19920;-66
2023/07/24 03:14:54;;;;;;;7.00;3.53;;;15.90;99.90;;;;;;5063500;28;20041;-66
2023/07/24 03:17:22;;;;;;;5.32;2.78;;;15.90;99.90;;;;;;5063310;28;20045;-65
2023/07/24 03:19:59;;;;;;;7.57;3.05;;;15.80;99.90;;;;;;5059891;28;20079;-66
2023/07/24 03:22:25;;;;;;;6.30;3.30;;;15.80;99.90;;;;;;5063970;28;20067;-67
2023/07/24 03:24:50;;;;;;;;;;;15.70;99.90;;;;;;5063719;28;20527;-66
2023/07/24 03:27:16;;;;;;;9.10;4.18;;;15.80;99.90;;;;;;5063636;28;19924;-66
2023/07/24 03:29:41;;;;;;;;;;;15.80;99.90;;;;;;5062813;28;20040;-66
2023/07/24 03:32:07;;;;;;;5.15;2.95;;;15.80;99.90;;;;;;5062699;28;19924;-66
2023/07/24 03:34:33;;;;;;;;;;;15.80;99.90;;;;;;5064063;28;20122;-66
2023/07/24 03:36:58;;;;;;;4.20;2.85;;;15.80;99.90;;;;;;5063794;28;20477;-65
2023/07/24 03:39:24;;;;;;;5.07;2.97;;;15.80;99.90;;;;;;5062323;28;20043;-66
2023/07/24 03:41:49;;;;;;;;;;;15.80;99.90;;;;;;5063240;28;20082;-65
2023/07/24 03:44:15;;;;;;;4.70;3.00;;;15.80;99.90;;;;;;5062618;28;19951;-67
2023/07/24 03:46:41;;;;;;;6.82;2.95;;;15.90;99.90;;;;;;5063760;28;20519;-66
2023/07/24 03:49:06;;;;;;;5.82;3.15;;;15.90;99.90;;;;;;5063128;28;20036;-66
2023/07/24 03:51:33;;;;;;;;;;;15.90;99.90;;;;;;5065620;28;20036;-64
2023/07/24 03:53:58;;;;;;;5.47;3.07;;;15.90;99.90;;;;;;5071174;28;19920;-65
2023/07/24 03:56:24;;;;;;;;;;;16.00;99.90;;;;;;5072710;28;20693;-65
2023/07/24 03:58:49;;;;;;;5.25;3.30;;;16.00;99.90;;;;;;5072153;28;19916;-66
2023/07/24 04:01:15;;;;;;;;;;;15.90;99.90;;;;;;5069780;28;20036;-66
2023/07/24 04:03:41;;;;;;;5.75;2.95;;;16.00;99.90;;;;;;5070943;28;19916;-65
2023/07/24 04:06:06;;;;;;;6.88;3.42;;;16.10;99.90;;;;;;5070759;28;20040;-65
2023/07/24 04:08:32;;;;;;;;;;;16.10;99.90;;;;;;5070509;28;20275;-65
2023/07/24 04:10:57;;;;;;;6.18;3.22;;;16.10;99.90;;;;;;5071238;28;19921;-67
2023/07/24 04:13:23;;;;;;;;;;;16.10;99.90;;;;;;5071127;28;20037;-63
2023/07/24 04:15:48;;;;;;;7.35;3.70;;;16.20;99.90;;;;;;5068990;28;19927;-66
2023/07/24 04:18:14;;;;;;;;;;;16.20;99.90;;;;;;5070638;28;20036;-64
2023/07/24 04:20:40;;;;;;;7.95;3.58;;;16.20;99.90;;;;;;5067664;28;19942;-66
2023/07/24 04:23:05;;;;;;;7.00;3.83;;;16.20;99.90;;;;;;5065509;28;20032;-66
2023/07/24 04:25:31;;;;;;;;;;;16.20;99.90;;;;;;5066898;28;20066;-65
2023/07/24 04:27:56;;;;;;;13.05;3.03;;;16.20;99.90;;;;;;5066522;28;19983;-66
2023/07/24 04:30:22;;;;;;;;;;;16.10;99.90;;;;;;5061574;28;20681;-68
2023/07/24 04:32:48;;;;;;;8.43;3.72;;;16.10;99.90;;;;;;5063047;28;20030;-66
2023/07/24 04:35:13;;;;;;;;;;;16.10;99.90;;;;;;5063283;28;20089;-66
2023/07/24 04:37:39;;;;;;;10.50;3.75;;;16.10;99.90;;;;;;5066649;28;20376;-66
2023/07/24 04:40:05;;;;;;;;;;;16.10;99.90;;;;;;5064732;28;20142;-67
2023/07/24 04:42:30;;;;;;;4.85;3.22;;;16.00;99.90;;;;;;5066252;28;19916;-66
2023/07/24 04:44:56;;;;;;;;;;;16.00;99.90;;;;;;5065980;28;20040;-67
2023/07/24 04:47:22;;;;;;;6.97;3.22;;;16.00;99.90;;;;;;5066729;28;19926;-65
2023/07/24 04:49:47;;;;;;;8.65;3.92;;;16.00;99.90;;;;;;5065078;28;20039;-67
2023/07/24 04:52:13;;;;;;;;;;;16.00;99.90;;;;;;5065802;28;20721;-66
2023/07/24 04:54:38;;;;;;;9.32;3.25;;;16.10;99.90;;;;;;5057345;28;19969;-66
2023/07/24 04:57:04;;;;;;;;;;;16.10;99.90;;;;;;5046127;28;20051;-66
2023/07/24 04:59:29;;;;;;;8.60;3.78;;;16.10;99.90;;;;;;5065909;28;19920;-65
2023/07/24 05:01:55;;;;;;;;;;;16.10;99.90;;;;;;5066880;28;20052;-66
2023/07/24 05:04:21;;;;;;;5.05;3.15;;;16.10;99.90;;;;;;5067478;28;19925;-66
2023/07/24 05:06:47;;;;;;;5.65;3.50;;;16.20;99.90;;;;;;5066625;28;20048;-67
2023/07/24 05:09:12;;;;;;;;;;;16.20;99.90;;;;;;5065833;28;20036;-66
2023/07/24 05:11:38;;;;;;;8.27;3.33;;;16.20;99.90;;;;;;5065704;28;19991;-66
2023/07/24 05:14:04;;;;;;;;;;;16.30;99.90;;;;;;5065639;28;20048;-65
2023/07/24 05:16:29;;;;;;;8.32;3.83;;;16.30;99.90;;;;;;5066123;28;19921;-64
2023/07/24 05:18:55;;;;;;;;;;;16.30;99.90;;;;;;5061731;28;20040;-64
2023/07/24 05:21:21;;;;;;;5.10;3.20;;;16.30;99.90;;;;;;5067087;28;20422;-65
2023/07/24 05:23:46;;;;;;;9.48;4.18;;;16.30;99.90;;;;;;5069048;28;20044;-64
2023/07/24 05:26:12;;;;;;;;;;;16.40;99.90;;;;;;5062917;28;20186;-67
2023/07/24 05:28:37;;;;;;;7.40;3.55;;;16.40;99.90;;;;;;5065226;28;19976;-66
2023/07/24 05:31:04;;;;;;;6.80;3.75;;;16.40;99.90;;;;;;5064704;28;20067;-66
2023/07/24 05:33:31;;;;;;;6.50;3.90;;;16.50;99.90;;;;;;5072181;28;20118;-65
2023/07/24 05:36:01;;;;;;;11.48;3.88;;;16.50;99.90;;;;;;5070497;28;20052;-67
2023/07/24 05:38:27;;;;;;;6.45;3.67;;;16.50;99.90;;;;;;5058398;28;20125;-65
2023/07/24 05:40:56;;;;;;;;;;;16.50;99.90;;;;;;5063763;28;20071;-66
2023/07/24 05:43:22;;;;;;;10.40;3.67;;;16.50;99.90;;;;;;5062705;28;20426;-65
2023/07/24 05:45:48;;;;;;;;;;;16.60;99.90;;;;;;5064561;28;20037;-65
2023/07/24 05:48:13;;;;;;;7.05;3.40;;;16.60;99.90;;;;;;5062456;28;19927;-67
2023/07/24 05:50:40;;;;;;;;;;;16.70;99.90;;;;;;5062398;28;20044;-65
2023/07/24 05:53:06;;;;;;;8.32;3.78;;;16.70;99.90;;;;;;5064150;28;19920;-62
2023/07/24 05:55:32;;;;;;;7.63;3.65;;;16.70;99.90;;;;;;5065084;28;20415;-66
2023/07/24 05:57:57;;;;;;;8.02;3.20;;;16.70;99.90;;;;;;5065298;28;20094;-66
2023/07/24 06:00:23;;;;;;;8.40;3.90;;;16.70;99.90;;;;;;5057191;28;20024;-66
2023/07/24 06:02:49;;;;;;;6.55;3.88;;;16.70;99.90;;;;;;5062302;28;20046;-66
2023/07/24 06:05:14;;;;;;;7.35;3.47;;;16.80;99.90;;;;;;5062083;28;20033;-65
2023/07/24 06:07:40;;;;;;;11.55;4.15;;;16.80;99.90;;;;;;5063807;28;20559;-68
2023/07/24 06:10:06;;;;;;;;;;;16.90;99.90;;;;;;5060476;28;20551;-65
2023/07/24 06:12:31;;;;;;;5.72;3.83;;;17.00;99.90;;;;;;5061091;28;19920;-65
2023/07/24 06:14:57;;;;;;;;;;;17.00;99.90;;;;;;5062675;28;20040;-65
2023/07/24 06:17:23;;;;;;;6.78;4.18;;;17.10;99.90;;;;;;5064599;28;19989;-66
2023/07/24 06:19:48;;;;;;;;;;;17.40;99.90;;;;;;5062665;28;20570;-66
2023/07/24 06:22:14;;;;;;;12.38;3.55;;;17.60;99.90;;;;;;5064204;28;20379;-65
2023/07/24 06:24:39;;;;;;;6.93;3.92;;;17.60;99.90;;;;;;5063890;28;20043;-67
2023/07/24 06:27:06;;;;;;;6.63;3.63;;;17.60;99.90;;;;;;5061858;28;20048;-67
2023/07/24 06:29:32;;;;;;;6.25;3.47;;;17.60;99.90;;;;;;5063134;28;20047;-66
2023/07/24 06:31:58;;;;;;;;;;;17.70;99.90;;;;;;5064001;28;20637;-65
2023/07/24 06:34:23;;;;;;;5.53;3.60;;;17.70;99.90;;;;;;5067998;28;19920;-66
2023/07/24 06:36:49;;;;;;;;;;;17.90;99.90;;;;;;5061388;28;20040;-64
2023/07/24 06:39:15;;;;;;;9.27;3.80;;;18.00;99.90;;;;;;5066340;28;19920;-66
2023/07/24 06:41:40;;;;;;;4.35;3.33;;;18.10;99.90;;;;;;5069512;28;20051;-65
2023/07/24 06:44:06;;;;;;;8.77;4.22;;;18.20;99.90;;;;;;5076436;28;20101;-65
2023/07/24 06:46:31;;;;;;;8.82;3.70;;;18.30;99.90;;;;;;5074128;28;20032;-66
2023/07/24 06:48:57;;;;;;;6.97;4.38;;;18.40;99.90;;;;;;5067336;28;20056;-64
2023/07/24 06:51:23;;;;;;;;;;;18.60;99.90;;;;;;5068805;28;20035;-63
2023/07/24 06:53:48;;;;;;;7.63;4.05;;;18.50;99.90;;;;;;5071362;28;19920;-66
2023/07/24 06:56:14;;;;;;;7.00;3.65;;;18.50;99.90;;;;;;5067561;28;20125;-65
2023/07/24 06:58:40;;;;;;;6.97;4.03;;;18.50;99.90;;;;;;5058915;28;20048;-65
2023/07/24 07:01:06;;;;;;;;;;;18.60;99.90;;;;;;5040670;28;20049;-66
2023/07/24 07:03:34;;;;;;;7.97;4.30;;;18.60;99.90;;;;;;5039733;28;19910;-63
2023/07/24 07:06:00;;;;;;;6.78;4.18;;;18.70;99.90;;;;;;5043617;28;20057;-64
2023/07/24 07:08:26;;;;;;;7.15;4.55;;;18.80;99.90;;;;;;5033207;28;20037;-63
2023/07/24 07:10:56;;;;;;;;;;;19.00;99.90;;;;;;5040375;28;20071;-65
2023/07/24 07:13:22;;;;;;;11.27;3.97;;;19.10;99.90;;;;;;5041280;28;19925;-66
2023/07/24 07:15:50;;;;;;;10.27;4.07;;;18.90;99.90;;;;;;5041088;28;20528;-67
2023/07/24 07:18:15;;;;;;;;;;;18.80;99.90;;;;;;5042154;28;20040;-66
2023/07/24 07:20:49;;;;;;;5.97;3.55;;;18.80;99.90;;;;;;5043056;28;20372;-65
2023/07/24 07:23:15;;;;;;;8.27;4.20;;;18.90;99.90;;;;;;5043295;28;20056;-64
2023/07/24 07:25:41;;;;;;;;;;;18.70;99.90;;;;;;5043521;28;20142;-65
2023/07/24 07:28:06;;;;;;;7.43;3.88;;;18.60;99.90;;;;;;5045050;28;19992;-65
2023/07/24 07:30:32;;;;;;;9.10;3.70;;;18.70;99.90;;;;;;5048999;28;20091;-66
2023/07/24 07:32:57;;;;;;;5.18;3.47;;;18.70;99.90;;;;;;5067155;28;20036;-65
2023/07/24 07:35:23;;;;;;;6.28;3.75;;;18.80;99.90;;;;;;5074366;28;20036;-64
2023/07/24 07:37:48;;;;;;;6.35;3.28;;;19.20;99.90;;;;;;5066804;28;20538;-66
2023/07/24 07:40:14;;;;;;;6.00;3.22;;;19.50;99.90;;;;;;5067860;28;20384;-65
2023/07/24 07:42:40;;;;;;;5.28;3.47;;;19.60;99.90;;;;;;5068188;28;20036;-67
2023/07/24 07:45:06;;;;;;;5.15;2.90;;;19.60;99.90;;;;;;5067829;28;20032;-66
2023/07/24 07:47:31;;;;;;;5.60;3.08;;;19.50;99.90;;;;;;5066683;28;20098;-65
2023/07/24 07:49:57;;;;;;;4.88;2.75;;;19.40;99.90;;;;;;5066764;28;20264;-65
2023/07/24 07:52:23;;;;;;;4.90;2.92;;;19.30;99.90;;;;;;5066702;28;20047;-64
2023/07/24 07:54:49;;;;;;;6.10;2.58;;;19.30;99.90;;;;;;5067099;28;20048;-65
2023/07/24 07:57:18;;;;;;;4.15;2.72;;;19.20;99.90;;;;;;5067773;28;20515;-63
2023/07/24 07:59:43;;;;;;;4.60;2.38;;;19.40;99.90;;;;;;5068115;28;20097;-65
2023/07/24 08:02:09;;;;;;;6.13;3.10;;;19.50;99.90;;;;;;5067355;28;20036;-64
2023/07/24 08:04:35;;;;;;;4.50;2.72;;;19.30;99.90;;;;;;5070628;28;20036;-67
2023/07/24 08:07:00;;;;;;;6.03;3.22;;;19.20;99.90;;;;;;5066834;28;20052;-64
2023/07/24 08:09:26;;;;;;;5.30;3.30;;;19.20;99.90;;;;;;5066863;28;20488;-65
2023/07/24 08:11:52;;;;;;;5.47;2.80;;;19.10;99.90;;;;;;5066957;28;20536;-65
2023/07/24 08:14:18;;;;;;;6.57;3.08;;;18.90;99.90;;;;;;5068010;28;20048;-65
2023/07/24 08:16:43;;;;;;;;;;;18.70;99.90;;;;;;5068227;28;20127;-66
2023/07/24 08:19:09;;;;;;;6.93;2.17;;;18.70;99.90;;;;;;5066217;28;19920;-68
2023/07/24 08:21:35;;;;;;;3.40;2.33;;;18.70;99.90;;;;;;5064402;28;21204;-66
2023/07/24 08:24:02;;;;;;;4.40;2.70;;;18.80;99.90;;;;;;5065342;28;20083;-66
2023/07/24 08:26:28;;;;;;;4.10;2.67;;;18.80;99.90;;;;;;5067088;28;20517;-65
2023/07/24 08:28:54;;;;;;;5.47;2.60;;;18.90;99.90;;;;;;5066587;28;20166;-67
2023/07/24 08:31:19;;;;;;;4.22;2.50;;;18.80;99.90;;;;;;5057159;28;20060;-66
2023/07/24 08:33:45;;;;;;;3.42;2.42;;;18.80;99.90;;;;;;5044896;28;20033;-65
2023/07/24 08:36:13;;;;;;;3.10;2.38;;;18.80;99.90;;;;;;5046777;28;20044;-65
2023/07/24 08:38:40;;;;;;;4.35;2.53;;;19.00;99.90;;;;;;5045576;28;20029;-67
2023/07/24 08:41:08;;;;;;;4.15;2.53;;;18.90;99.90;;;;;;5046735;28;20055;-67
2023/07/24 08:43:36;;;;;;;6.85;2.92;;;18.90;99.90;;;;;;5046970;28;20205;-65
2023/07/24 08:46:03;;;;;;;5.05;2.20;;;19.00;99.90;;;;;;5046384;28;20115;-65
2023/07/24 08:48:35;;;;;;;7.25;2.65;;;19.10;99.90;;;;;;5045666;28;20053;-66
2023/07/24 08:51:02;;;;;;;4.78;3.17;;;19.10;99.90;;;;;;5043000;28;20040;-67
2023/07/24 08:53:36;;;;;;;3.90;2.60;;;19.30;99.90;;;;;;5041338;28;20049;-63
2023/07/24 08:56:04;;;;;;;3.70;2.65;;;19.20;99.90;;;;;;5039815;28;20132;-63
2023/07/24 08:58:29;;;;;;;4.50;3.17;;;19.30;99.90;;;;;;5045407;28;20091;-64
2023/07/24 09:00:59;;;;;;;6.25;2.60;;;19.30;99.90;;;;;;5043936;28;20473;-66
2023/07/24 09:03:25;;;;;;;8.00;2.65;;;19.30;99.90;;;;;;5045286;28;20075;-65
2023/07/24 09:05:51;;;;;;;;;;;19.30;99.90;;;;;;5045610;28;20698;-65
2023/07/24 09:08:16;;;;;;;5.40;2.75;;;19.20;99.90;;;;;;5046109;28;19948;-65
2023/07/24 09:10:42;;;;;;;5.18;2.67;;;19.10;99.90;;;;;;5040795;28;20037;-63
2023/07/24 09:13:11;;;;;;;6.90;3.28;;;19.20;99.90;;;;;;5044190;28;20028;-63
2023/07/24 09:15:41;;;;;;;3.92;2.63;;;19.20;99.90;;;;;;5037194;28;20107;-64
2023/07/24 09:18:07;;;;;;;4.80;3.05;;;19.20;99.90;;;;;;5040927;28;20149;-65
2023/07/24 09:20:42;;;;;;;;;;;19.20;99.90;;;;;;5044233;28;20048;-65
2023/07/24 09:23:10;;;;;;;6.47;3.42;;;19.30;99.90;;;;;;5048149;28;19982;-64
2023/07/24 09:25:38;;;;;;;5.35;3.08;;;19.30;99.90;;;;;;5042431;28;20040;-65
2023/07/24 09:28:22;;;;;;;6.00;3.75;;;19.30;99.90;;;;;;5044720;28;20055;-65
2023/07/24 09:30:56;;;;;;;5.57;2.85;;;19.30;99.90;;;;;;5048634;28;20562;-65
2023/07/24 09:33:39;;;;;;;5.38;2.95;;;19.40;99.90;;;;;;5065016;28;20082;-66
2023/07/24 09:36:08;;;;;;;4.88;2.80;;;19.40;99.90;;;;;;5063203;28;20075;-65
2023/07/24 09:38:34;;;;;;;4.90;3.17;;;19.50;99.90;;;;;;5061325;28;20407;-65
2023/07/24 09:41:02;;;;;;;6.00;2.70;;;19.60;99.90;;;;;;5062913;28;20033;-64
2023/07/24 09:43:29;;;;;;;4.50;2.75;;;19.90;99.90;;;;;;5063922;28;20040;-66
2023/07/24 09:45:56;;;;;;;4.60;2.80;;;20.00;99.90;;;;;;5065010;28;20079;-64
2023/07/24 09:48:23;;;;;;;4.78;2.72;;;20.10;99.90;;;;;;5063566;28;20044;-65
2023/07/24 09:51:01;;;;;;;4.28;2.90;;;20.40;99.90;;;;;;5064631;28;20044;-65
2023/07/24 09:53:35;;;;;;;6.85;3.00;;;20.50;99.90;;;;;;5063766;28;20135;-66
2023/07/24 09:56:08;;;;;;;2.97;2.30;;;20.60;99.90;;;;;;5064507;28;20048;-64
2023/07/24 09:58:38;;;;;;;4.57;2.60;;;20.90;99.90;;;;;;5062186;28;20029;-65
2023/07/24 10:01:06;;;;;;;4.55;2.30;;;20.90;99.90;;;;;;5055493;28;20037;-65
2023/07/24 10:03:35;;;;;;;4.72;2.60;;;21.00;99.90;;;;;;5043028;28;20033;-65
2023/07/24 10:06:01;;;;;;;3.40;2.40;;;21.20;99.90;;;;;;5044232;28;20037;-65
2023/07/24 10:08:27;;;;;;;8.63;2.65;;;21.30;99.90;;;;;;5044005;28;20049;-66
2023/07/24 10:10:53;;;;;;;5.93;2.28;;;21.10;99.90;;;;;;5044523;28;20048;-64
2023/07/24 10:13:21;;;;;;;6.25;2.17;;;20.90;99.90;;;;;;5040243;28;20040;-65
2023/07/24 10:15:48;;;;;;;3.30;2.13;;;20.80;99.90;;;;;;5040104;28;20033;-65
2023/07/24 10:18:20;;;;;;;6.18;2.78;;;20.80;99.90;;;;;;5038497;28;20040;-66
2023/07/24 10:20:46;;;;;;;3.83;2.53;;;20.70;99.90;;;;;;5044278;28;20068;-64
2023/07/24 10:23:18;;;;;;;2.90;2.15;;;20.70;99.90;;;;;;5046826;28;20040;-64
2023/07/24 10:25:45;;;;;;;3.53;2.30;;;20.60;99.90;;;;;;5044688;28;20043;-66
2023/07/24 10:28:12;;;;;;;3.53;2.58;;;20.50;99.90;;;;;;5044132;28;20045;-65
2023/07/24 10:30:39;;;;;;;5.25;2.50;;;20.40;99.90;;;;;;5040266;28;20045;-65
2023/07/24 10:33:10;;;;;;;3.78;2.42;;;20.30;99.90;;;;;;5038120;28;20108;-64
2023/07/24 10:35:44;;;;;;;3.17;2.20;;;20.40;99.90;;;;;;5041502;28;20041;-65
2023/07/24 10:38:10;;;;;;;5.18;2.38;;;20.40;99.90;;;;;;5042035;28;20040;-66
2023/07/24 10:40:36;;;;;;;6.82;2.47;;;20.50;99.90;;;;;;5040058;28;20573;-64
2023/07/24 10:43:10;;;;;;;3.75;2.50;;;20.80;99.90;;;;;;5041277;28;20071;-65
2023/07/24 10:45:54;;;;;;;3.90;2.40;;;20.80;99.90;;;;;;5041492;28;20037;-65
2023/07/24 10:48:21;;;;;;;5.70;2.85;;;21.10;99.90;;;;;;5039979;28;20040;-64
2023/07/24 10:50:50;;;;;;;4.57;2.83;;;21.40;99.90;;;;;;5043435;28;20550;-65
2023/07/24 10:53:18;;;;;;;3.28;2.20;;;21.80;99.90;;;;;;5043941;28;20462;-64
2023/07/24 10:55:47;;;;;;;4.43;2.53;;;21.90;99.90;;;;;;5045799;28;20044;-65
2023/07/24 10:58:13;;;;;;;4.65;2.55;;;21.80;99.10;;;;;;5040198;28;20048;-64
2023/07/24 11:00:40;;;;;;;3.72;2.60;;;21.50;99.60;;;;;;5043912;28;20045;-67
2023/07/24 11:03:09;;;;;;;5.22;2.83;;;21.60;99.90;;;;;;5063439;28;20060;-66
2023/07/24 11:05:38;;;;;;;4.57;2.67;;;21.60;99.90;;;;;;5064044;28;20094;-66
2023/07/24 11:08:09;;;;;;;5.78;3.00;;;21.60;99.90;;;;;;5063965;28;20045;-66
2023/07/24 11:10:35;;;;;;;4.57;2.50;;;21.40;99.90;;;;;;5061943;28;20040;-64
2023/07/24 11:13:01;;;;;;;4.07;2.90;;;21.50;99.90;;;;;;5062717;28;20040;-66
2023/07/24 11:15:26;;;;;;;4.85;2.40;;;21.50;99.90;;;;;;5055512;28;20077;-65
2023/07/24 11:17:52;;;;;;;4.60;2.45;;;21.40;99.90;;;;;;5061986;28;20048;-67
2023/07/24 11:20:18;;;;;;;3.80;2.60;;;21.30;99.90;;;;;;5061693;28;20094;-65
2023/07/24 11:22:44;;;;;;;5.05;2.72;;;21.20;99.90;;;;;;5063195;28;20041;-64
2023/07/24 11:25:11;;;;;;;6.60;2.95;;;21.10;99.90;;;;;;5063678;28;20048;-65
2023/07/24 11:27:41;;;;;;;3.42;2.45;;;20.90;99.90;;;;;;5063425;28;20044;-68
2023/07/24 11:30:09;;;;;;;5.05;2.67;;;20.90;99.90;;;;;;5063321;28;20843;-66
2023/07/24 11:32:34;;;;;;;4.25;2.70;;;20.80;99.90;;;;;;5062895;28;20459;-65
2023/07/24 11:35:00;;;;;;;4.28;2.88;;;20.70;99.90;;;;;;5062651;28;20574;-64
2023/07/24 11:37:26;;;;;;;4.72;2.80;;;20.70;99.90;;;;;;5063615;28;20094;-65
2023/07/24 11:39:56;;;;;;;5.13;2.88;;;20.60;99.90;;;;;;5060255;28;20076;-65
2023/07/24 11:42:27;;;;;;;3.65;2.47;;;20.70;99.90;;;;;;5061685;28;20045;-66
2023/07/24 11:44:53;;;;;;;3.85;2.80;;;21.00;99.90;;;;;;5064359;28;20064;-65
2023/07/24 11:47:19;;;;;;;5.60;2.65;;;21.20;99.90;;;;;;5064427;28;20048;-65
2023/07/24 11:49:55;;;;;;;3.33;2.38;;;21.40;99.90;;;;;;5062248;28;20703;-65
2023/07/24 11:52:21;;;;;;;3.47;2.45;;;21.60;99.90;;;;;;5062483;28;20079;-65
2023/07/24 11:55:00;;;;;;;4.53;2.65;;;21.60;99.70;;;;;;5057839;28;20080;-66
2023/07/24 11:57:27;;;;;;;5.13;2.65;;;21.70;99.40;;;;;;5059970;28;20044;-66
2023/07/24 11:59:53;;;;;;;8.10;2.80;;;21.50;99.90;;;;;;5059091;28;20113;-67
2023/07/24 12:02:19;;;;;;;4.55;3.10;;;21.30;99.90;;;;;;5044830;28;20041;-66
2023/07/24 12:04:45;;;;;;;3.97;2.55;;;21.20;99.90;;;;;;5041006;28;20037;-66
2023/07/24 12:07:10;;;;;;;3.38;2.53;;;21.20;99.50;;;;;;5041688;28;20045;-66
2023/07/24 12:09:36;;;;;;;4.88;2.53;;;21.10;99.70;;;;;;5041642;28;20519;-67
2023/07/24 12:12:04;;;;;;;5.20;2.50;;;21.20;99.90;;;;;;5041317;28;20052;-65
2023/07/24 12:14:29;;;;;;;6.72;3.08;;;21.30;99.80;;;;;;5044873;28;20045;-65
2023/07/24 12:17:09;;;;;;;5.10;3.08;;;21.20;99.70;;;;;;5044403;28;20094;-67
2023/07/24 12:19:36;;;;;;;4.18;2.88;;;21.20;99.90;;;;;;5042436;28;20367;-64
2023/07/24 12:22:04;;;;;;;4.53;2.55;;;21.50;99.90;;;;;;5046469;28;20077;-63
2023/07/24 12:24:29;;;;;;;6.25;2.53;;;21.60;99.60;;;;;;5047423;28;20114;-64
2023/07/24 12:26:55;;;;;;;4.68;2.80;;;21.70;99.10;;;;;;5045313;28;20466;-64
2023/07/24 12:29:21;;;;;;;9.48;2.97;;;21.70;99.70;;;;;;5046017;28;20037;-64
2023/07/24 12:31:46;;;;;;;5.07;2.70;;;22.00;99.00;;;;;;5046834;28;20044;-66
2023/07/24 12:34:12;;;;;;;5.15;3.00;;;22.40;99.70;;;;;;5047405;28;20029;-66
2023/07/24 12:36:37;;;;;;;4.80;3.17;;;22.40;98.30;;;;;;5046525;28;20033;-65
2023/07/24 12:39:03;;;;;;;4.28;3.00;;;22.30;97.80;;;;;;5044121;28;20028;-66
2023/07/24 12:41:29;;;;;;;4.85;2.92;;;22.40;98.50;;;;;;5045349;28;20049;-66
2023/07/24 12:43:54;;;;;;;4.75;3.13;;;22.50;98.50;;;;;;5052669;28;20044;-65
2023/07/24 12:46:20;;;;;;;8.13;3.65;;;22.60;97.50;;;;;;5051579;28;20041;-66
2023/07/24 12:48:46;;;;;;;5.10;2.92;;;22.50;97.00;;;;;;5045371;28;20095;-67
2023/07/24 12:51:11;;;;;;;4.22;2.83;;;22.30;98.30;;;;;;5044783;28;20041;-64
2023/07/24 12:53:37;;;;;;;3.92;2.60;;;22.20;99.00;;;;;;5043712;28;20041;-65
2023/07/24 12:56:02;;;;;;;5.10;2.67;;;22.50;98.90;;;;;;5041230;28;20056;-64
2023/07/24 12:58:28;;;;;;;11.73;4.03;;;22.80;99.60;;;;;;5040849;28;20102;-63
2023/07/24 13:00:54;;;;;;;3.97;2.80;;;23.10;98.10;;;;;;5042744;28;20032;-66